createdAt,value
2024-01-15T00:00:50.130Z,0.14
2024-01-15T00:03:20.954Z,0.14
2024-01-15T00:05:51.833Z,0.14
2024-01-15T00:08:22.641Z,0.14
2024-01-15T00:10:53.608Z,0.14
2024-01-15T00:13:24.391Z,0.14
2024-01-15T00:15:55.031Z,0.15
2024-01-15T00:18:25.064Z,0.14
2024-01-15T00:20:54.997Z,0.15
2024-01-15T00:23:25.535Z,0.14
2024-01-15T00:25:55.738Z,0.14
2024-01-15T00:28:25.628Z,0.15
2024-01-15T00:30:56.659Z,0.14
2024-01-15T00:33:27.170Z,0.14
2024-01-15T00:35:57.124Z,0.13
2024-01-15T00:38:27.714Z,0.14
2024-01-15T00:40:58.630Z,0.14
2024-01-15T00:43:29.494Z,0.15
2024-01-15T00:46:00.382Z,0.15
2024-01-15T00:48:31.394Z,0.15
2024-01-15T00:51:02.173Z,0.15
2024-01-15T00:53:33.062Z,0.15
2024-01-15T00:56:03.683Z,0.15
2024-01-15T00:58:33.648Z,0.14
2024-01-15T01:01:03.886Z,0.15
2024-01-15T01:03:34.788Z,0.14
2024-01-15T01:06:05.640Z,0.14
2024-01-15T01:08:36.449Z,0.14
2024-01-15T01:11:07.441Z,0.14
2024-01-15T01:13:38.268Z,0.14
2024-01-15T01:16:09.838Z,0.14
2024-01-15T01:18:40.516Z,0.14
2024-01-15T01:21:11.004Z,0.14
2024-01-15T01:23:41.966Z,0.13
2024-01-15T01:26:13.222Z,0.13
2024-01-15T01:28:43.674Z,0.14
2024-01-15T01:31:14.649Z,0.14
2024-01-15T01:33:45.495Z,0.14
2024-01-15T01:36:16.533Z,0.14
2024-01-15T01:38:47.241Z,0.14
2024-01-15T01:41:18.175Z,0.14
2024-01-15T01:43:49.012Z,0.14
2024-01-15T01:46:19.579Z,0.14
2024-01-15T01:48:49.966Z,0.14
2024-01-15T01:51:19.936Z,0.14
2024-01-15T01:53:50.513Z,0.14
2024-01-15T01:56:21.448Z,0.14
2024-01-15T01:58:52.324Z,0.14
2024-01-15T02:01:23.239Z,0.15
2024-01-15T02:03:54.208Z,0.14
2024-01-15T02:06:25.052Z,0.16
2024-01-15T02:08:55.821Z,0.16
2024-01-15T02:11:26.826Z,0.15
2024-01-15T02:13:57.613Z,0.15
2024-01-15T02:16:28.558Z,0.14
2024-01-15T02:18:59.458Z,0.14
2024-01-15T02:21:30.572Z,0.15
2024-01-15T02:24:01.138Z,0.15
2024-01-15T02:26:32.159Z,0.14
2024-01-15T02:29:02.662Z,0.15
2024-01-15T02:31:32.823Z,0.15
2024-01-15T02:34:02.816Z,0.15
2024-01-15T02:36:33.621Z,0.14
2024-01-15T02:39:04.578Z,0.14
2024-01-15T02:41:35.350Z,0.14
2024-01-15T02:44:05.856Z,0.14
2024-01-15T02:46:35.952Z,0.14
2024-01-15T02:49:06.000Z,0.14
2024-01-15T02:51:37.192Z,0.14
2024-01-15T02:54:07.750Z,0.14
2024-01-15T02:56:38.662Z,0.14
2024-01-15T02:59:09.639Z,0.13
2024-01-15T03:01:40.495Z,0.14
2024-01-15T03:04:11.355Z,0.14
2024-01-15T03:06:41.588Z,0.12
2024-01-15T03:09:11.608Z,0.14
2024-01-15T03:11:42.444Z,0.15
2024-01-15T03:14:13.293Z,0.14
2024-01-15T03:16:44.205Z,0.14
2024-01-15T03:19:15.232Z,0.15
2024-01-15T03:21:46.065Z,0.15
2024-01-15T03:24:16.924Z,0.15
2024-01-15T03:26:47.848Z,0.14
2024-01-15T03:29:18.764Z,0.15
2024-01-15T03:31:49.692Z,0.15
2024-01-15T03:34:20.483Z,0.14
2024-01-15T03:36:51.367Z,0.15
2024-01-15T03:39:22.267Z,0.14
2024-01-15T03:41:53.136Z,0.15
2024-01-15T03:44:24.117Z,0.14
2024-01-15T03:46:55.014Z,0.14
2024-01-15T03:49:25.888Z,0.15
2024-01-15T03:51:56.684Z,0.15
2024-01-15T03:54:27.555Z,0.15
2024-01-15T03:56:58.430Z,0.15
2024-01-15T03:59:29.310Z,0.14
2024-01-15T04:02:00.355Z,0.14
2024-01-15T04:04:31.163Z,0.15
2024-01-15T04:07:02.030Z,0.15
2024-01-15T04:09:32.843Z,0.15
2024-01-15T04:12:03.691Z,0.14
2024-01-15T04:14:34.541Z,0.14
2024-01-15T04:17:05.473Z,0.15
2024-01-15T04:19:36.433Z,0.15
2024-01-15T04:22:07.199Z,0.14
2024-01-15T04:24:38.052Z,0.14
2024-01-15T04:27:08.985Z,0.14
2024-01-15T04:29:41.523Z,0.14
2024-01-15T04:32:10.772Z,0.14
2024-01-15T04:34:41.724Z,0.13
2024-01-15T04:37:12.585Z,0.15
2024-01-15T04:39:43.429Z,0.13
2024-01-15T04:42:14.230Z,0.13
2024-01-15T04:44:44.813Z,0.13
2024-01-15T04:47:14.768Z,0.14
2024-01-15T04:49:44.864Z,0.14
2024-01-15T04:52:15.756Z,0.15
2024-01-15T04:54:46.899Z,0.15
2024-01-15T04:57:17.575Z,0.15
2024-01-15T04:59:48.356Z,0.15
2024-01-15T05:02:20.952Z,0.15
2024-01-15T05:04:50.348Z,0.14
2024-01-15T05:07:21.074Z,0.14
2024-01-15T05:09:52.038Z,0.14
2024-01-15T05:12:22.865Z,0.14
2024-01-15T05:14:53.729Z,0.14
2024-01-15T05:17:24.776Z,0.13
2024-01-15T05:19:55.622Z,0.13
2024-01-15T05:22:26.412Z,0.13
2024-01-15T05:24:57.289Z,0.14
2024-01-15T05:27:28.203Z,0.13
2024-01-15T05:29:59.132Z,0.14
2024-01-15T05:32:29.979Z,0.13
2024-01-15T05:35:00.851Z,0.13
2024-01-15T05:37:31.712Z,0.14
2024-01-15T05:40:02.620Z,0.14
2024-01-15T05:42:33.526Z,0.13
2024-01-15T05:45:04.355Z,0.13
2024-01-15T05:47:35.376Z,0.13
2024-01-15T05:50:05.750Z,0.13
2024-01-15T05:52:35.826Z,0.13
2024-01-15T05:55:05.745Z,0.13
2024-01-15T05:57:36.666Z,0.14
2024-01-15T06:00:07.697Z,0.14
2024-01-15T06:02:38.357Z,0.14
2024-01-15T06:05:09.437Z,0.14
2024-01-15T06:07:40.118Z,0.14
2024-01-15T06:10:10.960Z,0.14
2024-01-15T06:12:42.010Z,0.13
2024-01-15T06:15:12.780Z,0.13
2024-01-15T06:17:44.906Z,0.14
2024-01-15T06:20:14.503Z,0.14
2024-01-15T06:22:45.442Z,0.14
2024-01-15T06:25:16.263Z,0.14
2024-01-15T06:27:47.200Z,0.14
2024-01-15T06:30:18.107Z,0.12
2024-01-15T06:32:49.085Z,0.12
2024-01-15T06:35:22.524Z,0.13
2024-01-15T06:37:50.085Z,0.1
2024-01-15T06:40:20.081Z,0.11
2024-01-15T06:42:50.960Z,0.13
2024-01-15T06:45:21.799Z,0.15
2024-01-15T06:47:52.689Z,0.14
2024-01-15T06:50:23.549Z,0.13
2024-01-15T06:52:54.449Z,0.15
2024-01-15T06:55:25.335Z,0.14
2024-01-15T06:57:56.316Z,0.14
2024-01-15T07:00:27.152Z,0.14
2024-01-15T07:02:58.090Z,0.14
2024-01-15T07:05:28.996Z,0.14
2024-01-15T07:07:59.828Z,0.13
2024-01-15T07:10:32.087Z,0.14
2024-01-15T07:13:01.667Z,0.14
2024-01-15T07:15:32.556Z,0.14
2024-01-15T07:18:03.420Z,0.13
2024-01-15T07:20:34.274Z,0.13
2024-01-15T07:23:05.219Z,0.14
2024-01-15T07:25:36.061Z,0.14
2024-01-15T07:28:06.990Z,0.13
2024-01-15T07:30:37.876Z,0.14
2024-01-15T07:33:08.869Z,0.14
2024-01-15T07:35:39.640Z,0.14
2024-01-15T07:38:10.551Z,0.15
2024-01-15T07:40:41.424Z,0.14
2024-01-15T07:43:12.357Z,0.14
2024-01-15T07:45:45.793Z,0.13
2024-01-15T07:48:14.256Z,0.13
2024-01-15T07:50:45.055Z,0.13
2024-01-15T07:53:15.908Z,0.13
2024-01-15T07:55:46.828Z,0.13
2024-01-15T07:58:17.650Z,0.13
2024-01-15T08:00:47.434Z,0.14
2024-01-15T08:03:17.449Z,0.14
2024-01-15T08:05:48.282Z,0.14
2024-01-15T08:08:19.116Z,0.14
2024-01-15T08:10:50.021Z,0.14
2024-01-15T08:13:20.997Z,0.13
2024-01-15T08:15:51.877Z,0.14
2024-01-15T08:18:22.942Z,0.14
2024-01-15T08:20:52.894Z,0.13
2024-01-15T08:23:22.802Z,0.14
2024-01-15T08:25:52.853Z,0.13
2024-01-15T08:28:22.895Z,0.13
2024-01-15T08:30:53.007Z,0.13
2024-01-15T08:33:23.135Z,0.13
2024-01-15T08:35:53.667Z,0.13
2024-01-15T08:38:23.154Z,0.12
2024-01-15T08:40:53.171Z,0.12
2024-01-15T08:43:24.108Z,0.11
2024-01-15T08:45:55.029Z,0.12
2024-01-15T08:48:26.024Z,0.09
2024-01-15T08:50:56.814Z,0.11
2024-01-15T08:53:27.688Z,0.12
2024-01-15T08:55:58.579Z,0.13
2024-01-15T08:58:29.547Z,0.12
2024-01-15T09:01:00.708Z,0.13
2024-01-15T09:03:31.389Z,0.13
2024-01-15T09:06:02.202Z,0.12
2024-01-15T09:08:33.074Z,0.13
2024-01-15T09:11:03.939Z,0.11
2024-01-15T09:13:34.805Z,0.13
2024-01-15T09:16:05.895Z,0.13
2024-01-15T09:18:36.645Z,0.12
2024-01-15T09:21:07.432Z,0.13
2024-01-15T09:23:37.965Z,0.14
2024-01-15T09:26:08.013Z,0.14
2024-01-15T09:28:38.192Z,0.14
2024-01-15T09:31:09.032Z,0.13
2024-01-15T09:33:39.958Z,0.13
2024-01-15T09:36:10.875Z,0.13
2024-01-15T09:38:41.654Z,0.13
2024-01-15T09:41:12.546Z,0.13
2024-01-15T09:43:43.466Z,0.13
2024-01-15T09:46:14.534Z,0.13
2024-01-15T09:48:45.349Z,0.13
2024-01-15T09:51:16.157Z,0.13
2024-01-15T09:53:47.021Z,0.13
2024-01-15T09:56:17.924Z,0.13
2024-01-15T09:58:48.825Z,0.13
2024-01-15T10:01:19.850Z,0.14
2024-01-15T10:03:50.680Z,0.13
2024-01-15T10:06:23.047Z,0.14
2024-01-15T10:08:52.263Z,0.14
2024-01-15T10:11:23.104Z,0.14
2024-01-15T10:13:55.796Z,0.14
2024-01-15T10:16:24.858Z,0.14
2024-01-15T10:18:55.957Z,0.14
2024-01-15T10:21:26.619Z,0.14
2024-01-15T10:23:57.484Z,0.14
2024-01-15T10:26:28.341Z,0.14
2024-01-15T10:28:59.236Z,0.15
2024-01-15T10:31:31.082Z,0.15
2024-01-15T10:34:01.073Z,0.15
2024-01-15T10:36:31.916Z,0.14
2024-01-15T10:39:02.755Z,0.15
2024-01-15T10:41:33.642Z,0.15
2024-01-15T10:44:04.513Z,0.14
2024-01-15T10:46:35.354Z,0.14
2024-01-15T10:49:06.336Z,0.13
2024-01-15T10:51:37.111Z,0.14
2024-01-15T10:54:07.973Z,0.15
2024-01-15T10:56:38.832Z,0.14
2024-01-15T10:59:09.758Z,0.14
2024-01-15T11:01:40.694Z,0.14
2024-01-15T11:04:11.613Z,0.14
2024-01-15T11:06:42.418Z,0.13
2024-01-15T11:09:13.258Z,0.14
2024-01-15T11:11:44.084Z,0.15
2024-01-15T11:14:14.964Z,0.14
2024-01-15T11:16:45.817Z,0.14
2024-01-15T11:19:16.862Z,0.13
2024-01-15T11:21:47.564Z,0.14
2024-01-15T11:24:18.474Z,0.14
2024-01-15T11:26:49.278Z,0.14
2024-01-15T11:29:19.812Z,0.13
2024-01-15T11:31:49.986Z,0.15
2024-01-15T11:34:19.912Z,0.14
2024-01-15T11:36:50.787Z,0.14
2024-01-15T11:39:21.637Z,0.15
2024-01-15T11:41:52.592Z,0.14
2024-01-15T11:44:23.443Z,0.14
2024-01-15T11:46:54.422Z,0.14
2024-01-15T11:49:25.262Z,0.14
2024-01-15T11:51:56.090Z,0.13
2024-01-15T11:54:27.179Z,0.13
2024-01-15T11:56:57.928Z,0.13
2024-01-15T11:59:28.766Z,0.14
2024-01-15T12:01:59.637Z,0.14
2024-01-15T12:04:30.598Z,0.14
2024-01-15T12:07:01.522Z,0.14
2024-01-15T12:09:32.050Z,0.15
2024-01-15T12:12:01.986Z,0.14
2024-01-15T12:14:32.037Z,0.15
2024-01-15T12:17:05.843Z,0.15
2024-01-15T12:19:33.833Z,0.14
2024-01-15T12:22:04.970Z,0.13
2024-01-15T12:24:35.609Z,0.13
2024-01-15T12:27:06.541Z,0.13
2024-01-15T12:29:37.358Z,0.13
2024-01-15T12:32:08.184Z,0.13
2024-01-15T12:34:39.088Z,0.12
2024-01-15T12:37:09.932Z,0.13
2024-01-15T12:39:40.790Z,0.13
2024-01-15T12:42:11.633Z,0.14
2024-01-15T12:44:42.498Z,0.14
2024-01-15T12:47:13.338Z,0.14
2024-01-15T12:49:44.284Z,0.14
2024-01-15T12:52:15.109Z,0.14
2024-01-15T12:54:46.274Z,0.14
2024-01-15T12:57:16.918Z,0.13
2024-01-15T12:59:47.852Z,0.14
2024-01-15T13:02:18.628Z,0.13
2024-01-15T13:04:49.665Z,0.14
2024-01-15T13:07:20.441Z,0.14
2024-01-15T13:09:51.451Z,0.14
2024-01-15T13:12:22.248Z,0.14
2024-01-15T13:14:53.138Z,0.14
2024-01-15T13:17:24.158Z,0.13
2024-01-15T13:19:55.016Z,0.14
2024-01-15T13:22:26.036Z,0.13
2024-01-15T13:24:56.675Z,0.13
2024-01-15T13:27:27.862Z,0.13
2024-01-15T13:29:58.512Z,0.13
2024-01-15T13:32:29.757Z,0.13
2024-01-15T13:35:00.314Z,0.13
2024-01-15T13:37:31.120Z,0.13
2024-01-15T13:40:02.137Z,0.11
2024-01-15T13:42:32.360Z,0.12
2024-01-15T13:45:02.330Z,0.14
2024-01-15T13:47:33.177Z,0.15
2024-01-15T13:50:04.158Z,0.14
2024-01-15T13:52:35.002Z,0.14
2024-01-15T13:55:05.893Z,0.15
2024-01-15T13:57:36.884Z,0.15
2024-01-15T14:00:07.640Z,0.15
2024-01-15T14:02:38.500Z,0.16
2024-01-15T14:05:09.438Z,0.15
2024-01-15T14:07:40.392Z,0.15
2024-01-15T14:10:11.214Z,0.15
2024-01-15T14:12:42.225Z,0.15
2024-01-15T14:15:13.086Z,0.15
2024-01-15T14:17:44.018Z,0.14
2024-01-15T14:20:14.950Z,0.15
2024-01-15T14:22:45.731Z,0.15
2024-01-15T14:25:16.635Z,0.15
2024-01-15T14:27:47.548Z,0.16
2024-01-15T14:30:18.548Z,0.16
2024-01-15T14:32:49.370Z,0.16
2024-01-15T14:35:20.374Z,0.16
2024-01-15T14:37:51.138Z,0.16
2024-01-15T14:40:22.115Z,0.16
2024-01-15T14:42:53.024Z,0.16
2024-01-15T14:45:23.100Z,0.16
2024-01-15T14:47:53.088Z,0.17
2024-01-15T14:50:23.223Z,0.17
2024-01-15T14:52:54.000Z,0.15
2024-01-15T14:55:24.949Z,0.15
2024-01-15T14:57:56.029Z,0.15
2024-01-15T15:00:26.892Z,0.15
2024-01-15T15:02:57.613Z,0.14
2024-01-15T15:05:28.642Z,0.14
2024-01-15T15:07:59.424Z,0.15
2024-01-15T15:10:29.962Z,0.12
2024-01-15T15:13:00.648Z,0.13
2024-01-15T15:15:30.694Z,0.14
2024-01-15T15:18:01.528Z,0.14
2024-01-15T15:20:32.488Z,0.14
2024-01-15T15:23:03.280Z,0.15
2024-01-15T15:25:34.181Z,0.15
2024-01-15T15:28:05.129Z,0.15
2024-01-15T15:30:36.061Z,0.14
2024-01-15T15:33:06.163Z,0.14
2024-01-15T15:35:36.125Z,0.13
2024-01-15T15:38:06.114Z,0.14
2024-01-15T15:40:36.125Z,0.14
2024-01-15T15:43:06.326Z,0.14
2024-01-15T15:45:36.395Z,0.14
2024-01-15T15:48:07.370Z,0.13
2024-01-15T15:50:38.475Z,0.13
2024-01-15T15:53:08.941Z,0.13
2024-01-15T15:55:39.834Z,0.13
2024-01-15T15:58:10.773Z,0.14
2024-01-15T16:00:41.696Z,0.15
2024-01-15T16:03:12.570Z,0.15
2024-01-15T16:05:49.884Z,0.14
2024-01-15T16:08:14.255Z,0.16
2024-01-15T16:10:44.783Z,0.14
2024-01-15T16:13:14.809Z,0.16
2024-01-15T16:15:44.938Z,0.15
2024-01-15T16:23:19.908Z,0.16
2024-01-15T16:23:32.690Z,0.16
2024-01-15T16:24:02.246Z,0.16
2024-01-15T16:25:48.906Z,0.15
2024-01-15T16:28:19.418Z,0.15
2024-01-15T16:30:52.673Z,0.15
2024-01-15T16:33:21.143Z,0.15
2024-01-15T16:35:51.906Z,0.14
2024-01-15T16:38:21.748Z,0.15
2024-01-15T16:40:51.804Z,0.17
2024-01-15T16:43:22.693Z,0.16
2024-01-15T16:45:53.688Z,0.16
2024-01-15T16:48:24.693Z,0.16
2024-01-15T16:50:55.528Z,0.16
2024-01-15T16:53:26.333Z,0.16
2024-01-15T16:55:56.392Z,0.15
2024-01-15T16:58:26.400Z,0.15
2024-01-15T17:00:56.601Z,0.14
2024-01-15T17:03:26.494Z,0.16
2024-01-15T17:05:56.778Z,0.15
2024-01-15T17:08:26.678Z,0.15
2024-01-15T17:10:57.338Z,0.14
2024-01-15T17:13:26.742Z,0.14
2024-01-15T17:15:56.874Z,0.15
2024-01-15T17:18:26.869Z,0.14
2024-01-15T17:20:57.140Z,0.15
2024-01-15T17:23:27.032Z,0.15
2024-01-15T17:25:57.168Z,0.15
2024-01-15T17:28:27.061Z,0.15
2024-01-15T17:30:57.408Z,0.14
2024-01-15T17:33:28.089Z,0.15
2024-01-15T17:35:58.936Z,0.15
2024-01-15T17:38:28.945Z,0.15
2024-01-15T17:40:59.265Z,0.15
2024-01-15T17:43:29.068Z,0.15
2024-01-15T17:45:59.118Z,0.14
2024-01-15T17:48:29.211Z,0.13
2024-01-15T17:50:59.277Z,0.13
2024-01-15T17:53:29.721Z,0.14
2024-01-15T17:55:59.782Z,0.15
2024-01-15T17:58:30.570Z,0.15
2024-01-15T18:01:03.409Z,0.16
2024-01-15T18:03:31.494Z,0.15
2024-01-15T18:06:01.853Z,0.15
2024-01-15T18:08:31.761Z,0.16
2024-01-15T18:11:01.730Z,0.16
2024-01-15T18:13:31.716Z,0.15
2024-01-15T18:16:01.852Z,0.15
2024-01-15T18:18:31.887Z,0.15
2024-01-15T18:21:01.950Z,0.15
2024-01-15T18:23:32.100Z,0.15
2024-01-15T18:26:02.135Z,0.15
2024-01-15T18:28:32.080Z,0.16
2024-01-15T18:31:02.179Z,0.15
2024-01-15T18:33:32.329Z,0.14
2024-01-15T18:36:02.352Z,0.15
2024-01-15T18:38:32.293Z,0.14
2024-01-15T18:41:04.073Z,0.15
2024-01-15T18:43:34.162Z,0.15
2024-01-15T18:46:05.060Z,0.15
2024-01-15T18:48:36.082Z,0.15
2024-01-15T18:51:06.850Z,0.15
2024-01-15T18:53:36.908Z,0.15
2024-01-15T18:56:06.969Z,0.16
2024-01-15T18:58:37.013Z,0.16
2024-01-15T19:01:07.057Z,0.16
2024-01-15T19:03:37.260Z,0.16
2024-01-15T19:06:07.258Z,0.15
2024-01-15T19:08:37.379Z,0.15
2024-01-15T19:11:07.261Z,0.16
2024-01-15T19:13:37.928Z,0.15
2024-01-15T19:16:07.965Z,0.16
2024-01-15T19:18:38.047Z,0.16
2024-01-15T19:21:08.116Z,0.17
2024-01-15T19:23:38.188Z,0.16
2024-01-15T19:26:08.203Z,0.16
2024-01-15T19:28:38.232Z,0.16
2024-01-15T19:31:08.362Z,0.17
2024-01-15T19:33:38.620Z,0.16
2024-01-15T19:36:08.476Z,0.17
2024-01-15T19:38:38.521Z,0.17
2024-01-15T19:41:08.658Z,0.16
2024-01-15T19:43:38.752Z,0.17
2024-01-15T19:46:08.733Z,0.17
2024-01-15T19:48:38.861Z,0.16
2024-01-15T19:51:09.033Z,0.16
2024-01-15T19:53:38.958Z,0.16
2024-01-15T19:56:09.014Z,0.16
2024-01-15T19:58:39.059Z,0.16
2024-01-15T20:01:09.162Z,0.17
2024-01-15T20:03:39.232Z,0.16
2024-01-15T20:06:09.358Z,0.16
2024-01-15T20:08:39.322Z,0.15
2024-01-15T20:11:09.374Z,0.16
2024-01-15T20:13:39.413Z,0.16
2024-01-15T20:16:09.521Z,0.16
2024-01-15T20:18:39.659Z,0.16
2024-01-15T20:21:09.600Z,0.16
2024-01-15T20:23:50.410Z,0.16
2024-01-15T20:26:09.742Z,0.15
2024-01-15T20:28:39.755Z,0.15
2024-01-15T20:31:09.803Z,0.16
2024-01-15T20:33:39.871Z,0.15
2024-01-15T20:36:09.942Z,0.15
2024-01-15T20:38:40.675Z,0.14
2024-01-15T20:41:10.588Z,0.15
2024-01-15T20:43:40.612Z,0.16
2024-01-15T20:46:10.650Z,0.16
2024-01-15T20:48:40.839Z,0.16
2024-01-15T20:51:11.369Z,0.17
2024-01-15T20:53:41.462Z,0.16
2024-01-15T20:56:11.663Z,0.16
2024-01-15T20:58:41.571Z,0.16
2024-01-15T21:01:11.712Z,0.16
2024-01-15T21:03:41.918Z,0.16
2024-01-15T21:06:11.897Z,0.16
2024-01-15T21:08:41.888Z,0.16
2024-01-15T21:11:11.955Z,0.16
2024-01-15T21:13:42.013Z,0.15
2024-01-15T21:16:12.076Z,0.15
2024-01-15T21:18:42.209Z,0.16
2024-01-15T21:21:12.303Z,0.16
2024-01-15T21:23:42.995Z,0.15
2024-01-15T21:26:13.042Z,0.15
2024-01-15T21:28:42.962Z,0.15
2024-01-15T21:31:13.100Z,0.15
2024-01-15T21:33:43.210Z,0.15
2024-01-15T21:36:13.162Z,0.15
2024-01-15T21:38:43.150Z,0.15
2024-01-15T21:41:13.241Z,0.16
2024-01-15T21:43:43.247Z,0.15
2024-01-15T21:46:14.200Z,0.15
2024-01-15T21:48:45.286Z,0.15
2024-01-15T21:51:15.989Z,0.15
2024-01-15T21:53:46.636Z,0.13
2024-01-15T21:56:16.642Z,0.15
2024-01-15T21:58:46.621Z,0.16
2024-01-15T22:01:17.704Z,0.16
2024-01-15T22:03:48.370Z,0.16
2024-01-15T22:06:19.432Z,0.16
2024-01-15T22:08:50.247Z,0.16
2024-01-15T22:11:21.148Z,0.16
2024-01-15T22:13:51.916Z,0.16
2024-01-15T22:16:22.830Z,0.16
2024-01-15T22:18:53.854Z,0.17
2024-01-15T22:21:24.632Z,0.16
2024-01-15T22:23:55.531Z,0.16
2024-01-15T22:26:26.442Z,0.17
2024-01-15T22:28:57.307Z,0.16
2024-01-15T22:31:28.326Z,0.16
2024-01-15T22:33:59.211Z,0.16
2024-01-15T22:36:30.069Z,0.16
2024-01-15T22:39:00.948Z,0.16
2024-01-15T22:41:31.925Z,0.16
2024-01-15T22:44:02.829Z,0.16
2024-01-15T22:46:33.661Z,0.16
2024-01-15T22:49:04.540Z,0.17
2024-01-15T22:51:35.438Z,0.17
2024-01-15T22:54:06.335Z,0.17
2024-01-15T22:56:37.270Z,0.17
2024-01-15T22:59:08.141Z,0.17
2024-01-15T23:01:39.029Z,0.17
2024-01-15T23:04:09.884Z,0.17
2024-01-15T23:06:40.837Z,0.17
2024-01-15T23:09:11.686Z,0.17
2024-01-15T23:11:42.671Z,0.18
2024-01-15T23:14:13.566Z,0.16
2024-01-15T23:16:44.475Z,0.17
2024-01-15T23:19:15.028Z,0.15
2024-01-15T23:21:45.030Z,0.17
2024-01-15T23:24:15.089Z,0.19
2024-01-15T23:26:46.054Z,0.19
2024-01-15T23:29:16.905Z,0.19
2024-01-15T23:31:47.834Z,0.19
2024-01-15T23:34:17.869Z,0.19
2024-01-15T23:36:47.896Z,0.19
2024-01-15T23:39:17.944Z,0.19
2024-01-15T23:41:49.021Z,0.19
2024-01-15T23:44:18.945Z,0.2
2024-01-15T23:46:49.047Z,0.19
2024-01-15T23:49:19.119Z,0.19
2024-01-15T23:51:49.009Z,0.19
2024-01-15T23:54:19.062Z,0.19
2024-01-15T23:56:49.293Z,0.19
2024-01-15T23:59:19.186Z,0.18
